createdAt,value
2022-10-05T03:38:24.192Z,8.46
2022-10-05T03:41:54.805Z,8.46
2022-10-05T03:45:02.206Z,7.91
2022-10-05T03:48:13.630Z,7.91
2022-10-05T03:51:42.771Z,7.89
2022-10-05T03:54:56.049Z,7.89
2022-10-05T03:58:06.657Z,7.89
2022-10-05T04:01:16.107Z,7.91
2022-10-05T04:04:26.595Z,7.87
2022-10-05T04:07:38.063Z,7.94
2022-10-05T04:10:51.516Z,7.94
2022-10-05T04:14:17.703Z,7.94
2022-10-05T04:17:34.707Z,7.93
2022-10-05T04:20:44.264Z,8.01
2022-10-05T04:24:12.059Z,8.10
2022-10-05T04:27:20.468Z,8.25
2022-10-05T04:30:23.502Z,8.30
2022-10-05T04:33:27.576Z,8.45
2022-10-05T04:36:41.043Z,8.49
2022-10-05T04:40:05.946Z,8.53
2022-10-05T04:43:31.022Z,8.45
2022-10-05T04:46:48.861Z,8.45
2022-10-05T04:50:21.163Z,8.44
2022-10-05T04:53:57.434Z,8.36
2022-10-05T04:57:03.441Z,8.25
2022-10-05T05:00:19.893Z,8.27
2022-10-05T05:03:45.106Z,8.27
2022-10-05T05:07:09.122Z,8.15
2022-10-05T05:10:32.688Z,8.18
2022-10-05T05:13:54.700Z,8.21
2022-10-05T05:17:14.796Z,8.18
2022-10-05T05:20:25.933Z,8.20
2022-10-05T05:24:00.953Z,8.23
2022-10-05T05:27:31.459Z,8.29
2022-10-05T05:31:05.470Z,8.48
2022-10-05T05:34:36.571Z,8.55
2022-10-05T05:37:52.078Z,8.62
2022-10-05T05:41:33.106Z,8.63
2022-10-05T05:44:47.920Z,8.67
2022-10-05T05:47:54.316Z,8.78
2022-10-05T05:51:10.721Z,8.77
2022-10-05T05:54:16.259Z,8.82
2022-10-05T05:57:28.000Z,9.02
2022-10-05T06:00:37.858Z,9.06
2022-10-05T06:03:51.162Z,9.09
2022-10-05T06:06:57.627Z,9.17
2022-10-05T06:10:32.552Z,9.22
2022-10-05T06:13:39.740Z,9.38
2022-10-05T06:16:56.307Z,9.49
2022-10-05T06:20:07.987Z,9.60
2022-10-05T06:23:20.524Z,9.77
2022-10-05T06:26:59.611Z,9.89
2022-10-05T06:30:11.447Z,9.93
2022-10-05T06:33:21.935Z,10.08
2022-10-05T06:36:40.306Z,10.25
2022-10-05T06:40:19.499Z,10.44
2022-10-05T06:43:47.745Z,10.64
2022-10-05T06:47:22.378Z,10.72
2022-10-05T06:50:34.346Z,10.86
2022-10-05T06:54:04.587Z,11.01
2022-10-05T06:57:46.293Z,11.23
2022-10-05T07:00:54.174Z,11.41
2022-10-05T07:04:14.531Z,11.54
2022-10-05T07:07:27.295Z,11.66
2022-10-05T07:10:49.312Z,11.71
2022-10-05T07:14:03.915Z,11.85
2022-10-05T07:21:16.911Z,12.21
2022-10-05T07:24:33.318Z,12.17
2022-10-05T07:28:00.561Z,12.32
2022-10-05T07:31:19.819Z,12.52
2022-10-05T07:34:31.313Z,12.79
2022-10-05T07:38:00.088Z,13.35
2022-10-05T07:41:08.038Z,14.01
2022-10-05T07:44:30.975Z,14.48
2022-10-05T07:47:43.542Z,14.49
2022-10-05T07:50:56.444Z,14.40
2022-10-05T07:54:10.099Z,14.88
2022-10-05T07:57:35.193Z,14.86
2022-10-05T08:01:00.658Z,14.66
2022-10-05T08:04:30.873Z,14.71
2022-10-05T08:07:35.924Z,14.60
2022-10-05T08:11:00.984Z,14.61
2022-10-05T08:14:33.535Z,14.85
2022-10-05T08:17:58.285Z,15.01
2022-10-05T08:21:01.468Z,15.51
2022-10-05T08:24:15.619Z,15.69
2022-10-05T08:27:48.718Z,15.48
2022-10-05T08:31:01.053Z,15.31
2022-10-05T08:34:20.982Z,15.81
2022-10-05T08:37:29.877Z,19.98
2022-10-05T08:41:15.363Z,24.62
2022-10-05T08:44:55.518Z,26.73
2022-10-05T08:48:25.654Z,26.14
2022-10-05T08:51:42.541Z,27.31
2022-10-05T08:55:12.751Z,25.00
2022-10-05T08:58:53.375Z,23.46
2022-10-05T09:01:59.208Z,21.60
2022-10-05T09:05:40.135Z,19.25
2022-10-05T09:09:19.101Z,17.98
2022-10-05T09:12:46.310Z,17.67
2022-10-05T09:16:07.407Z,17.40
2022-10-05T09:19:43.081Z,17.35
2022-10-05T09:23:29.694Z,17.43
2022-10-05T09:27:04.575Z,17.51
2022-10-05T09:30:28.388Z,17.51
2022-10-05T09:34:08.810Z,17.70
2022-10-05T09:37:23.137Z,17.94
2022-10-05T09:40:41.632Z,17.86
2022-10-05T09:44:22.027Z,18.12
2022-10-05T09:47:59.102Z,18.30
2022-10-05T09:51:19.831Z,18.03
2022-10-05T09:54:37.441Z,18.03
2022-10-05T09:58:02.525Z,18.20
2022-10-05T10:01:39.273Z,18.20
2022-10-05T10:05:16.006Z,18.17
2022-10-05T10:08:34.518Z,18.06
2022-10-05T10:11:49.417Z,17.95
2022-10-05T10:15:29.735Z,17.91
2022-10-05T10:18:42.742Z,18.05
2022-10-05T10:21:57.310Z,17.82
2022-10-05T10:25:21.238Z,17.87
2022-10-05T10:28:45.109Z,18.16
2022-10-05T10:32:26.328Z,18.34
2022-10-05T10:35:40.607Z,18.46
2022-10-05T10:38:59.867Z,18.63
2022-10-05T10:42:29.807Z,18.67
2022-10-05T10:45:54.295Z,18.71
2022-10-05T10:49:19.725Z,18.54
2022-10-05T10:52:56.350Z,18.41
2022-10-05T10:56:29.244Z,18.37
2022-10-05T11:00:05.685Z,18.42
2022-10-05T11:03:32.688Z,18.69
2022-10-05T11:06:54.154Z,18.53
2022-10-05T11:10:37.314Z,18.44
2022-10-05T11:14:02.821Z,18.53
2022-10-05T11:17:15.474Z,18.58
2022-10-05T11:20:49.434Z,18.62
2022-10-05T11:24:13.700Z,18.75
2022-10-05T11:28:03.885Z,18.57
2022-10-05T11:31:23.790Z,18.60
2022-10-05T11:34:36.995Z,18.61
2022-10-05T11:37:57.681Z,18.68
2022-10-05T11:41:27.726Z,18.75
2022-10-05T11:44:43.006Z,18.82
2022-10-05T11:47:45.714Z,18.72
2022-10-05T11:50:51.176Z,18.80
2022-10-05T11:54:09.660Z,18.69
2022-10-05T11:57:26.132Z,18.83
2022-10-05T12:00:50.136Z,18.87
2022-10-05T12:04:23.880Z,19.05
2022-10-05T12:07:33.453Z,19.12
2022-10-05T12:10:52.240Z,19.27
2022-10-05T12:14:06.717Z,19.26
2022-10-05T12:17:41.656Z,19.38
2022-10-05T12:21:07.348Z,19.28
2022-10-05T12:24:26.948Z,19.28
2022-10-05T12:27:36.774Z,19.29
2022-10-05T12:31:10.020Z,19.45
2022-10-05T12:34:20.985Z,19.53
2022-10-05T12:37:53.457Z,19.52
2022-10-05T12:41:15.004Z,19.52
2022-10-05T12:44:55.157Z,19.37
2022-10-05T12:48:28.252Z,19.23
2022-10-05T12:51:41.855Z,19.32
2022-10-05T12:54:52.477Z,19.22
2022-10-05T12:58:06.468Z,19.21
2022-10-05T13:01:14.978Z,19.31
2022-10-05T13:04:21.797Z,19.41
2022-10-05T13:07:42.560Z,19.44
2022-10-05T13:10:53.645Z,19.43
2022-10-05T13:14:16.439Z,19.37
2022-10-05T13:17:46.808Z,19.13
2022-10-05T13:20:57.804Z,19.00
2022-10-05T13:24:33.990Z,18.90
2022-10-05T13:28:00.759Z,18.93
2022-10-05T13:31:14.899Z,18.93
2022-10-05T13:34:43.427Z,19.01
2022-10-05T13:38:36.269Z,19.08
2022-10-05T13:42:26.016Z,19.17
2022-10-05T13:45:41.180Z,19.19
2022-10-05T13:48:59.986Z,19.18
2022-10-05T13:52:08.762Z,18.99
2022-10-05T13:55:21.906Z,19.03
2022-10-05T13:58:52.713Z,19.02
2022-10-05T14:02:04.903Z,19.09
2022-10-05T14:05:17.824Z,19.08
2022-10-05T14:08:23.115Z,19.06
2022-10-05T14:11:35.137Z,18.98
2022-10-05T14:14:52.806Z,18.86
2022-10-05T14:17:55.914Z,18.90
2022-10-05T14:21:03.015Z,18.82
2022-10-05T14:24:43.654Z,18.79
2022-10-05T14:28:25.818Z,18.72
2022-10-05T14:31:37.475Z,18.78
2022-10-05T14:34:46.111Z,18.59
2022-10-05T14:38:07.923Z,18.62
2022-10-05T14:41:19.052Z,18.63
2022-10-05T14:47:45.481Z,18.44
2022-10-05T14:51:03.296Z,18.42
2022-10-05T14:54:46.373Z,18.44
2022-10-05T14:58:04.721Z,18.42
2022-10-05T15:01:31.462Z,18.27
2022-10-05T15:05:14.315Z,18.18
2022-10-05T15:08:27.501Z,18.01
2022-10-05T15:11:38.328Z,17.92
2022-10-05T15:14:44.233Z,17.91
2022-10-05T15:17:54.374Z,17.90
2022-10-05T15:21:24.788Z,17.86
2022-10-05T15:24:41.273Z,17.78
2022-10-05T15:28:06.598Z,17.71
2022-10-05T15:31:48.852Z,17.68
2022-10-05T15:35:22.277Z,17.55
2022-10-05T15:38:28.567Z,17.54
2022-10-05T15:41:37.000Z,17.47
2022-10-05T15:45:06.376Z,17.43
2022-10-05T15:48:41.065Z,17.35
